createdAt,value
2022-11-22T00:00:43.371Z,7.54
2022-11-22T00:03:10.968Z,7.59
2022-11-22T00:05:38.400Z,7.60
2022-11-22T00:08:06.318Z,7.65
2022-11-22T00:10:34.228Z,7.68
2022-11-22T00:13:02.002Z,7.75
2022-11-22T00:15:29.988Z,7.77
2022-11-22T00:17:57.637Z,7.92
2022-11-22T00:20:25.331Z,7.84
2022-11-22T00:22:53.029Z,7.92
2022-11-22T00:25:20.392Z,7.94
2022-11-22T00:27:47.815Z,7.92
2022-11-22T00:30:15.620Z,7.94
2022-11-22T00:32:43.171Z,7.86
2022-11-22T00:35:12.028Z,7.76
2022-11-22T00:37:39.467Z,7.84
2022-11-22T00:40:07.299Z,7.65
2022-11-22T00:42:34.748Z,7.87
2022-11-22T00:45:01.996Z,7.93
2022-11-22T00:47:29.264Z,8.01
2022-11-22T00:49:56.715Z,7.96
2022-11-22T00:52:24.071Z,8.01
2022-11-22T00:54:54.707Z,8.01
2022-11-22T00:57:23.243Z,7.99
2022-11-22T00:59:50.701Z,7.90
2022-11-22T01:02:18.035Z,7.99
2022-11-22T01:04:45.176Z,8.01
2022-11-22T01:07:12.478Z,8.05
2022-11-22T01:09:39.845Z,8.03
2022-11-22T01:12:07.122Z,7.97
2022-11-22T01:14:34.367Z,7.96
2022-11-22T01:17:01.871Z,7.95
2022-11-22T01:19:29.405Z,7.89
2022-11-22T01:21:57.146Z,7.89
2022-11-22T01:24:24.724Z,7.87
2022-11-22T01:26:52.276Z,7.90
2022-11-22T01:29:19.720Z,7.88
2022-11-22T01:31:47.404Z,7.87
2022-11-22T01:34:14.778Z,7.74
2022-11-22T01:36:42.039Z,7.78
2022-11-22T01:39:09.287Z,7.80
2022-11-22T01:41:36.674Z,7.80
2022-11-22T01:44:22.194Z,7.74
2022-11-22T01:46:54.219Z,7.70
2022-11-22T01:49:34.280Z,7.76
2022-11-22T01:52:24.877Z,7.76
2022-11-22T01:54:57.499Z,7.86
2022-11-22T01:57:29.150Z,7.81
2022-11-22T02:00:01.519Z,7.82
2022-11-22T02:02:34.879Z,7.85
2022-11-22T02:05:06.203Z,7.79
2022-11-22T02:08:08.670Z,7.76
2022-11-22T02:10:42.302Z,7.85
2022-11-22T02:13:17.590Z,7.82
2022-11-22T02:16:11.570Z,7.77
2022-11-22T02:18:48.882Z,7.81
2022-11-22T02:21:16.396Z,7.82
2022-11-22T02:23:46.686Z,7.84
2022-11-22T02:26:14.979Z,7.74
2022-11-22T02:28:43.117Z,7.72
2022-11-22T02:31:34.572Z,7.81
2022-11-22T02:34:02.162Z,7.80
2022-11-22T02:36:35.246Z,7.88
2022-11-22T02:39:02.755Z,7.87
2022-11-22T02:41:30.093Z,7.92
2022-11-22T02:43:57.570Z,7.98
2022-11-22T02:46:24.752Z,7.91
2022-11-22T02:48:52.012Z,7.95
2022-11-22T02:51:20.265Z,7.99
2022-11-22T02:53:49.563Z,8.02
2022-11-22T02:56:17.589Z,7.98
2022-11-22T02:58:45.598Z,7.96
2022-11-22T03:01:13.579Z,7.98
2022-11-22T03:03:41.074Z,7.97
2022-11-22T03:06:08.512Z,8.04
2022-11-22T03:08:36.109Z,8.08
2022-11-22T03:11:03.490Z,8.12
2022-11-22T03:13:30.835Z,8.13
2022-11-22T03:15:58.150Z,8.11
2022-11-22T03:18:26.266Z,8.11
2022-11-22T03:20:53.768Z,8.10
2022-11-22T03:23:21.154Z,8.09
2022-11-22T03:25:48.521Z,8.13
2022-11-22T03:28:15.871Z,8.14
2022-11-22T03:30:43.014Z,8.12
2022-11-22T03:33:10.440Z,8.14
2022-11-22T03:35:37.967Z,8.11
2022-11-22T03:38:06.178Z,8.09
2022-11-22T03:40:34.166Z,8.04
2022-11-22T03:43:02.120Z,8.10
2022-11-22T03:45:30.079Z,8.00
2022-11-22T03:47:57.574Z,7.91
2022-11-22T03:50:25.176Z,7.95
2022-11-22T03:52:52.445Z,7.98
2022-11-22T03:55:20.042Z,7.98
2022-11-22T03:57:47.570Z,7.87
2022-11-22T04:00:15.271Z,7.89
2022-11-22T04:02:44.290Z,7.93
2022-11-22T04:05:11.864Z,7.92
2022-11-22T04:07:39.467Z,7.85
2022-11-22T04:10:07.634Z,7.91
2022-11-22T04:12:35.310Z,7.97
2022-11-22T04:15:08.910Z,7.95
2022-11-22T04:17:45.674Z,7.95
2022-11-22T04:20:33.724Z,7.97
2022-11-22T04:23:03.780Z,7.96
2022-11-22T04:25:33.526Z,7.98
2022-11-22T04:28:01.378Z,7.99
2022-11-22T04:36:48.988Z,7.95
2022-11-22T04:39:16.418Z,7.95
2022-11-22T04:41:43.741Z,7.93
2022-11-22T04:44:29.418Z,7.93
2022-11-22T04:46:56.803Z,7.84
2022-11-22T04:49:24.138Z,7.86
2022-11-22T04:52:09.811Z,7.86
2022-11-22T04:54:37.209Z,7.87
2022-11-22T04:57:04.551Z,7.86
2022-11-22T04:59:32.163Z,7.87
2022-11-22T05:01:59.748Z,7.91
2022-11-22T05:04:27.440Z,7.93
2022-11-22T05:06:56.895Z,7.92
2022-11-22T05:09:24.578Z,7.96
2022-11-22T05:11:52.032Z,7.97
2022-11-22T05:14:19.460Z,7.96
2022-11-22T05:16:46.889Z,7.94
2022-11-22T05:19:14.425Z,7.93
2022-11-22T05:21:41.645Z,7.97
2022-11-22T05:24:08.974Z,8.01
2022-11-22T05:26:36.975Z,7.95
2022-11-22T05:29:09.919Z,7.97
2022-11-22T05:31:39.381Z,7.98
2022-11-22T05:34:06.968Z,8.04
2022-11-22T05:36:35.311Z,8.03
2022-11-22T05:39:03.490Z,7.95
2022-11-22T05:41:31.089Z,7.96
2022-11-22T05:43:58.497Z,8.01
2022-11-22T05:46:28.712Z,8.02
2022-11-22T05:48:57.931Z,8.11
2022-11-22T05:51:34.103Z,8.16
2022-11-22T05:54:02.792Z,8.16
2022-11-22T05:56:30.407Z,8.14
2022-11-22T05:58:57.827Z,8.18
2022-11-22T06:01:25.441Z,8.19
2022-11-22T06:03:54.032Z,8.07
2022-11-22T06:06:21.882Z,8.13
2022-11-22T06:08:49.455Z,8.08
2022-11-22T06:11:20.049Z,7.97
2022-11-22T06:13:50.027Z,8.09
2022-11-22T06:16:18.301Z,8.08
2022-11-22T06:18:45.999Z,8.08
2022-11-22T06:21:19.467Z,8.05
2022-11-22T06:23:46.985Z,8.05
2022-11-22T06:26:17.519Z,8.12
2022-11-22T06:28:45.977Z,8.09
2022-11-22T06:31:21.526Z,8.02
2022-11-22T06:33:49.544Z,7.96
2022-11-22T06:36:21.504Z,8.01
2022-11-22T06:38:49.265Z,8.00
2022-11-22T06:41:20.878Z,7.99
2022-11-22T06:43:50.241Z,7.98
2022-11-22T06:46:19.387Z,7.89
2022-11-22T06:48:47.459Z,7.69
2022-11-22T06:51:24.336Z,7.83
2022-11-22T06:53:52.650Z,7.86
2022-11-22T06:56:29.130Z,7.82
2022-11-22T06:58:57.278Z,7.91
2022-11-22T07:01:27.722Z,7.87
2022-11-22T07:03:59.218Z,7.92
2022-11-22T07:06:29.059Z,7.89
2022-11-22T07:08:57.182Z,7.93
2022-11-22T07:11:28.082Z,7.91
2022-11-22T07:14:00.399Z,7.86
2022-11-22T07:16:31.257Z,7.96
2022-11-22T07:19:01.501Z,7.88
2022-11-22T07:21:29.054Z,7.94
2022-11-22T07:23:56.368Z,7.96
2022-11-22T07:26:25.946Z,7.92
2022-11-22T07:28:53.558Z,8.02
2022-11-22T07:31:21.606Z,7.90
2022-11-22T07:33:49.585Z,7.99
2022-11-22T07:36:19.529Z,8.09
2022-11-22T07:38:48.092Z,8.24
2022-11-22T07:41:17.439Z,8.31
2022-11-22T07:43:47.055Z,8.42
2022-11-22T07:46:21.316Z,8.58
2022-11-22T07:48:49.772Z,8.75
2022-11-22T07:51:17.620Z,8.88
2022-11-22T07:53:45.602Z,9.11
2022-11-22T07:56:13.807Z,9.37
2022-11-22T07:58:41.563Z,9.56
2022-11-22T08:01:11.368Z,9.90
2022-11-22T08:03:39.150Z,10.19
2022-11-22T08:06:09.954Z,10.51
2022-11-22T08:08:38.151Z,10.80
2022-11-22T08:11:06.233Z,11.10
2022-11-22T08:13:35.078Z,11.40
2022-11-22T08:16:08.484Z,11.77
2022-11-22T08:18:37.165Z,12.27
2022-11-22T08:21:11.763Z,12.61
2022-11-22T08:23:40.785Z,12.60
2022-11-22T08:26:12.501Z,12.35
2022-11-22T08:28:40.753Z,12.17
2022-11-22T08:31:14.328Z,12.24
2022-11-22T08:33:42.485Z,12.26
2022-11-22T08:36:10.647Z,12.34
2022-11-22T08:38:38.752Z,12.35
2022-11-22T08:41:07.300Z,12.48
2022-11-22T08:43:35.098Z,12.73
2022-11-22T08:46:03.297Z,12.81
2022-11-22T08:48:33.105Z,12.94
2022-11-22T08:51:03.275Z,12.86
2022-11-22T08:53:33.028Z,12.91
2022-11-22T08:56:02.056Z,12.77
2022-11-22T08:58:31.354Z,12.63
2022-11-22T09:01:08.048Z,12.65
2022-11-22T09:03:37.928Z,12.70
2022-11-22T09:09:15.215Z,12.79
2022-11-22T09:11:44.893Z,12.96
2022-11-22T09:14:12.467Z,12.93
2022-11-22T09:16:40.093Z,12.83
2022-11-22T09:19:07.603Z,12.51
2022-11-22T09:21:35.149Z,12.33
2022-11-22T09:24:02.648Z,12.33
2022-11-22T09:26:31.141Z,12.40
2022-11-22T09:28:58.734Z,12.25
2022-11-22T09:31:26.214Z,12.07
2022-11-22T09:33:53.586Z,11.96
2022-11-22T09:36:28.930Z,12.16
2022-11-22T09:38:57.062Z,12.31
2022-11-22T09:41:47.083Z,12.67
2022-11-22T09:44:31.119Z,12.61
2022-11-22T09:47:04.950Z,12.61
2022-11-22T09:49:59.060Z,12.84
2022-11-22T09:52:44.517Z,13.08
2022-11-22T09:55:31.974Z,13.25
2022-11-22T09:58:33.564Z,13.43
2022-11-22T10:01:14.747Z,13.51
2022-11-22T10:03:54.751Z,13.67
2022-11-22T10:06:34.095Z,13.68
2022-11-22T10:09:26.432Z,13.67
2022-11-22T10:12:02.003Z,13.83
2022-11-22T10:14:47.617Z,13.86
2022-11-22T10:17:20.975Z,13.91
2022-11-22T10:20:06.140Z,13.96
2022-11-22T10:22:35.545Z,13.96
2022-11-22T10:25:13.593Z,14.06
2022-11-22T10:27:42.139Z,14.15
2022-11-22T10:30:16.600Z,14.05
2022-11-22T10:33:12.125Z,14.15
2022-11-22T10:35:42.615Z,14.17
2022-11-22T10:38:30.096Z,13.96
2022-11-22T10:41:00.525Z,14.13
2022-11-22T10:43:40.086Z,14.20
2022-11-22T10:46:18.927Z,14.34
2022-11-22T10:49:35.786Z,14.34
2022-11-22T10:52:22.155Z,14.37
2022-11-22T10:55:09.726Z,14.50
2022-11-22T10:57:56.504Z,14.66
2022-11-22T11:00:25.951Z,14.65
2022-11-22T11:03:21.185Z,14.55
2022-11-22T11:06:21.654Z,14.70
2022-11-22T11:09:23.803Z,14.67
2022-11-22T11:11:40.256Z,14.85
2022-11-22T11:14:18.706Z,14.90
2022-11-22T11:16:47.346Z,14.91
2022-11-22T11:19:18.485Z,14.85
2022-11-22T11:21:46.351Z,14.78
2022-11-22T11:24:15.427Z,14.55
2022-11-22T11:26:51.512Z,14.48
2022-11-22T11:29:18.989Z,14.37
2022-11-22T11:31:49.707Z,14.38
2022-11-22T11:34:26.734Z,14.34
2022-11-22T11:36:54.641Z,14.36
2022-11-22T11:39:33.396Z,14.30
2022-11-22T11:42:01.688Z,14.16
2022-11-22T11:44:37.269Z,14.01
2022-11-22T11:47:05.821Z,13.97
2022-11-22T11:49:34.817Z,14.09
2022-11-22T11:52:10.173Z,14.07
2022-11-22T11:54:40.683Z,14.04
2022-11-22T11:57:14.238Z,13.82
2022-11-22T11:59:45.394Z,13.78
2022-11-22T12:02:23.814Z,13.74
2022-11-22T12:05:04.672Z,13.62
2022-11-22T12:07:35.484Z,13.54
2022-11-22T12:10:40.412Z,13.55
2022-11-22T12:13:22.742Z,13.73
2022-11-22T12:16:13.876Z,13.74
2022-11-22T12:18:56.628Z,13.63
2022-11-22T12:21:30.104Z,13.76
2022-11-22T12:24:34.838Z,13.89
2022-11-22T12:26:57.211Z,13.95
2022-11-22T12:29:25.193Z,13.84
2022-11-22T12:31:54.511Z,13.68
2022-11-22T12:34:36.707Z,13.52
2022-11-22T12:37:18.915Z,13.49
2022-11-22T12:39:53.570Z,13.28
2022-11-22T12:42:30.487Z,13.27
2022-11-22T12:45:06.371Z,13.22
2022-11-22T12:47:40.580Z,13.13
2022-11-22T12:50:17.083Z,13.11
2022-11-22T12:53:10.234Z,13.16
2022-11-22T12:55:48.169Z,13.32
2022-11-22T12:58:24.452Z,13.48
2022-11-22T13:01:15.677Z,13.58
2022-11-22T13:03:49.479Z,13.60
2022-11-22T13:06:23.627Z,13.59
2022-11-22T13:09:03.666Z,13.50
2022-11-22T13:11:46.779Z,13.50
2022-11-22T13:14:29.369Z,13.46
2022-11-22T13:16:57.303Z,13.47
2022-11-22T13:19:26.816Z,13.57
2022-11-22T13:22:16.108Z,13.65
2022-11-22T13:24:55.775Z,13.67
2022-11-22T13:27:31.752Z,13.62
2022-11-22T13:30:01.859Z,13.61
2022-11-22T13:32:34.155Z,13.60
2022-11-22T13:35:15.945Z,13.62
2022-11-22T13:37:50.186Z,13.68
2022-11-22T13:40:28.589Z,13.76
2022-11-22T13:43:21.208Z,13.83
2022-11-22T13:45:50.253Z,13.85
2022-11-22T13:48:40.180Z,13.92
2022-11-22T13:51:18.690Z,13.92
2022-11-22T13:53:48.101Z,13.97
2022-11-22T13:56:15.454Z,13.96
2022-11-22T13:58:52.202Z,14.00
2022-11-22T14:01:35.130Z,13.99
2022-11-22T14:04:38.962Z,13.92
2022-11-22T14:07:23.683Z,13.84
2022-11-22T14:09:51.296Z,13.82
2022-11-22T14:12:36.289Z,13.71
2022-11-22T14:15:25.014Z,13.67
2022-11-22T14:18:20.470Z,13.58
2022-11-22T14:21:14.584Z,13.57
2022-11-22T14:23:53.743Z,13.54
2022-11-22T14:26:28.743Z,13.60
2022-11-22T14:29:23.587Z,13.66
2022-11-22T14:32:13.148Z,13.70
2022-11-22T14:35:02.403Z,13.74
2022-11-22T14:37:29.896Z,13.66
2022-11-22T14:40:10.138Z,13.68
2022-11-22T14:42:40.190Z,13.70
2022-11-22T14:45:10.345Z,13.67
2022-11-22T14:47:44.249Z,13.64
2022-11-22T14:50:38.234Z,13.57
2022-11-22T14:53:28.149Z,13.53
2022-11-22T14:56:17.944Z,13.49
2022-11-22T14:59:15.553Z,13.34
2022-11-22T15:02:07.568Z,13.34
2022-11-22T15:09:10.825Z,13.33
2022-11-22T15:09:12.525Z,13.34
2022-11-22T15:11:01.752Z,13.22
2022-11-22T15:13:29.157Z,13.11
2022-11-22T15:59:40.802Z,11.35
2022-11-22T16:02:25.703Z,11.25
2022-11-22T16:06:04.400Z,11.29
2022-11-22T16:07:48.274Z,11.12
2022-11-22T16:10:23.465Z,11.07
2022-11-22T16:12:51.982Z,10.93
2022-11-22T16:15:39.961Z,10.88
2022-11-22T16:18:16.829Z,10.87
2022-11-22T16:21:19.209Z,10.84
2022-11-22T16:23:47.152Z,10.84
2022-11-22T16:26:17.643Z,10.75
2022-11-22T16:28:46.795Z,10.72
2022-11-22T16:31:24.084Z,10.72
2022-11-22T16:33:53.451Z,10.64
2022-11-22T16:36:22.667Z,10.73
2022-11-22T16:38:50.892Z,10.78
2022-11-22T16:41:26.541Z,10.72
2022-11-22T16:43:56.527Z,10.51
2022-11-22T16:46:23.897Z,10.42
2022-11-22T16:48:51.408Z,10.40
2022-11-22T16:51:23.835Z,10.48
2022-11-22T16:53:53.438Z,10.37
2022-11-22T16:56:25.513Z,10.29
2022-11-22T16:58:55.652Z,10.11
2022-11-22T17:01:26.557Z,10.03
2022-11-22T17:03:56.620Z,9.95
2022-11-22T17:06:26.895Z,9.96
2022-11-22T17:08:56.376Z,9.85
2022-11-22T17:11:26.321Z,9.88
2022-11-22T17:13:54.503Z,9.90
2022-11-22T17:16:21.882Z,9.76
2022-11-22T17:18:49.153Z,9.84
2022-11-22T17:21:35.863Z,9.76
2022-11-22T17:24:22.035Z,9.72
2022-11-22T17:26:49.689Z,9.71
2022-11-22T17:29:42.935Z,9.82
2022-11-22T17:32:04.984Z,9.85
2022-11-22T17:34:32.679Z,9.64
2022-11-22T17:37:00.451Z,9.55
2022-11-22T17:39:28.103Z,9.47
2022-11-22T17:41:55.711Z,9.40
2022-11-22T17:44:23.081Z,9.28
2022-11-22T17:46:50.368Z,9.29
2022-11-22T17:49:17.512Z,9.37
2022-11-22T17:51:46.576Z,9.31
2022-11-22T17:54:13.978Z,9.39
2022-11-22T17:56:41.454Z,9.42
2022-11-22T17:59:08.692Z,9.42
2022-11-22T18:01:36.999Z,9.51
2022-11-22T18:04:04.464Z,9.54
2022-11-22T18:06:32.633Z,9.60
2022-11-22T18:09:01.017Z,9.56
2022-11-22T18:11:28.528Z,9.58
2022-11-22T18:13:55.705Z,9.50
2022-11-22T18:16:28.659Z,9.46
2022-11-22T18:18:58.080Z,9.42
2022-11-22T18:21:32.041Z,9.37
2022-11-22T18:24:00.338Z,9.28
2022-11-22T18:26:43.964Z,9.25
2022-11-22T18:32:01.406Z,9.16
2022-11-22T18:34:30.215Z,9.17
2022-11-22T18:37:01.844Z,9.16
2022-11-22T18:39:32.358Z,9.12
2022-11-22T18:42:00.087Z,9.11
2022-11-22T18:44:27.666Z,9.27
2022-11-22T18:46:55.442Z,9.26
2022-11-22T18:49:23.062Z,9.27
2022-11-22T18:51:50.467Z,9.13
2022-11-22T18:54:18.441Z,9.18
2022-11-22T18:56:45.753Z,9.20
2022-11-22T18:59:13.627Z,8.98
2022-11-22T19:01:41.392Z,8.96
2022-11-22T19:04:13.086Z,9.04
2022-11-22T19:06:41.967Z,8.94
2022-11-22T19:09:10.038Z,8.95
2022-11-22T19:11:37.714Z,8.82
2022-11-22T19:14:05.537Z,8.80
2022-11-22T19:16:33.063Z,8.84
2022-11-22T19:19:00.328Z,8.95
2022-11-22T19:21:28.882Z,8.95
2022-11-22T19:23:57.351Z,9.00
2022-11-22T19:26:27.420Z,9.05
2022-11-22T19:28:56.448Z,8.97
2022-11-22T19:31:29.320Z,8.96
2022-11-22T19:33:58.538Z,8.94
2022-11-22T19:36:33.470Z,8.88
2022-11-22T19:39:04.219Z,8.81
2022-11-22T19:41:32.095Z,8.83
2022-11-22T19:44:00.256Z,8.78
2022-11-22T19:46:28.218Z,8.74
2022-11-22T19:48:57.898Z,8.78
2022-11-22T19:51:27.218Z,8.75
2022-11-22T19:53:58.920Z,8.79
2022-11-22T19:56:30.349Z,8.77
2022-11-22T19:59:00.042Z,8.79
2022-11-22T20:01:30.305Z,8.60
2022-11-22T20:04:00.726Z,8.63
2022-11-22T20:06:28.445Z,8.64
2022-11-22T20:09:09.874Z,8.68
2022-11-22T20:11:39.759Z,8.71
2022-11-22T20:14:08.158Z,8.83
2022-11-22T20:16:38.465Z,8.80
2022-11-22T20:19:07.620Z,8.75
2022-11-22T20:21:36.107Z,8.89
2022-11-22T20:24:05.429Z,8.86
2022-11-22T20:26:33.489Z,8.82
2022-11-22T20:29:06.858Z,8.77
2022-11-22T20:31:36.973Z,8.83
2022-11-22T20:34:04.871Z,8.95
2022-11-22T20:36:34.271Z,8.92
2022-11-22T20:39:07.001Z,8.94
2022-11-22T20:41:40.644Z,8.93
2022-11-22T20:44:12.407Z,9.00
2022-11-22T20:46:40.562Z,9.02
2022-11-22T20:49:07.966Z,9.05
2022-11-22T20:51:38.772Z,9.09
2022-11-22T20:54:07.731Z,9.04
2022-11-22T20:56:35.788Z,9.01
2022-11-22T20:59:03.949Z,9.06
2022-11-22T21:01:31.984Z,8.96
2022-11-22T21:03:59.608Z,8.99
2022-11-22T21:06:28.011Z,9.02
2022-11-22T21:08:55.477Z,8.99
2022-11-22T21:11:31.102Z,9.08
2022-11-22T21:13:58.969Z,9.11
2022-11-22T21:16:28.802Z,9.18
2022-11-22T21:19:01.757Z,9.15
2022-11-22T21:21:30.223Z,9.12
2022-11-22T21:24:00.121Z,9.07
2022-11-22T21:26:28.229Z,9.10
2022-11-22T21:28:56.354Z,9.09
2022-11-22T21:31:24.157Z,9.09
2022-11-22T21:33:52.040Z,9.12
2022-11-22T21:36:20.662Z,9.27
2022-11-22T21:38:48.481Z,9.21
2022-11-22T21:44:06.301Z,9.19
2022-11-22T21:46:33.829Z,9.17
2022-11-22T21:49:01.285Z,9.13
2022-11-22T21:51:28.548Z,9.10
2022-11-22T21:53:56.344Z,9.05
2022-11-22T21:56:26.180Z,9.08
2022-11-22T21:58:54.568Z,9.07
2022-11-22T22:01:22.525Z,9.14
2022-11-22T22:03:50.297Z,9.08
2022-11-22T22:06:17.755Z,9.11
2022-11-22T22:08:45.330Z,9.12
2022-11-22T22:11:12.855Z,9.12
2022-11-22T22:13:40.372Z,9.13
2022-11-22T22:16:08.489Z,9.14
2022-11-22T22:18:37.616Z,9.26
2022-11-22T22:21:07.812Z,9.31
2022-11-22T22:23:37.104Z,9.30
2022-11-22T22:26:07.768Z,9.30
2022-11-22T22:28:37.165Z,9.33
2022-11-22T22:31:09.770Z,9.33
2022-11-22T22:33:40.722Z,9.44
2022-11-22T22:36:09.747Z,9.39
2022-11-22T22:38:38.449Z,9.35
2022-11-22T22:41:06.869Z,9.45
2022-11-22T22:43:37.179Z,9.45
2022-11-22T22:46:12.269Z,9.45
2022-11-22T22:48:40.667Z,9.42
2022-11-22T22:51:13.466Z,9.45
2022-11-22T22:53:41.746Z,9.52
2022-11-22T22:56:10.762Z,9.48
2022-11-22T22:58:38.828Z,9.54
2022-11-22T23:01:06.219Z,9.52
2022-11-22T23:03:33.638Z,9.47
2022-11-22T23:06:05.445Z,9.50
2022-11-22T23:08:32.965Z,9.51
2022-11-22T23:11:03.891Z,9.45
2022-11-22T23:13:31.297Z,9.44
2022-11-22T23:16:00.275Z,9.41
2022-11-22T23:18:28.075Z,9.47
2022-11-22T23:21:00.153Z,9.50
2022-11-22T23:23:28.263Z,9.48
2022-11-22T23:25:55.993Z,9.51
2022-11-22T23:28:23.418Z,9.56
2022-11-22T23:30:51.096Z,9.65
2022-11-22T23:33:18.547Z,9.59
2022-11-22T23:35:45.840Z,9.57
2022-11-22T23:38:13.150Z,9.63
2022-11-22T23:40:40.501Z,9.57
2022-11-22T23:43:07.764Z,9.56
2022-11-22T23:45:35.140Z,9.44
2022-11-22T23:48:02.724Z,9.53
2022-11-22T23:50:33.696Z,9.56
2022-11-22T23:53:03.588Z,9.56
2022-11-22T23:55:30.948Z,9.51
2022-11-22T23:57:58.855Z,9.47
